createdAt,value
2023-02-02T00:00:54.844Z,90.91
2023-02-02T00:01:54.830Z,91.53
2023-02-02T00:02:54.951Z,90.50
2023-02-02T00:03:54.855Z,90.60
2023-02-02T00:04:54.793Z,90.50
2023-02-02T00:05:54.793Z,90.39
2023-02-02T00:06:54.787Z,90.50
2023-02-02T00:07:54.753Z,90.45
2023-02-02T00:08:54.745Z,90.70
2023-02-02T00:09:54.732Z,89.87
2023-02-02T00:10:54.717Z,90.29
2023-02-02T00:11:54.704Z,90.35
2023-02-02T00:12:54.693Z,90.14
2023-02-02T00:13:54.703Z,90.14
2023-02-02T00:14:54.691Z,90.29
2023-02-02T00:15:54.709Z,89.42
2023-02-02T00:16:54.655Z,89.73
2023-02-02T00:17:54.632Z,89.62
2023-02-02T00:18:54.624Z,89.42
2023-02-02T00:19:54.605Z,89.52
2023-02-02T00:20:54.594Z,88.59
2023-02-02T00:21:54.585Z,89.52
2023-02-02T00:22:54.567Z,89.11
2023-02-02T00:23:54.559Z,88.69
2023-02-02T00:24:54.547Z,89.31
2023-02-02T00:25:54.553Z,88.79
2023-02-02T00:26:54.549Z,89.11
2023-02-02T00:27:54.527Z,89.17
2023-02-02T00:28:54.497Z,89.31
2023-02-02T00:29:54.496Z,88.79
2023-02-02T00:30:54.508Z,88.90
2023-02-02T00:31:54.542Z,89.31
2023-02-02T00:32:54.444Z,88.79
2023-02-02T00:33:54.434Z,89.00
2023-02-02T00:34:54.430Z,88.96
2023-02-02T00:35:54.408Z,89.31
2023-02-02T00:36:54.394Z,89.31
2023-02-02T00:37:54.383Z,89.42
2023-02-02T00:38:54.375Z,88.76
2023-02-02T00:39:54.362Z,89.21
2023-02-02T00:40:54.359Z,89.28
2023-02-02T00:41:54.333Z,88.96
2023-02-02T00:42:54.320Z,89.52
2023-02-02T00:43:54.315Z,89.42
2023-02-02T00:44:54.299Z,89.62
2023-02-02T00:45:54.339Z,89.58
2023-02-02T00:46:54.273Z,90.04
2023-02-02T00:47:54.259Z,89.94
2023-02-02T00:48:54.249Z,89.89
2023-02-02T00:49:54.237Z,90.10
2023-02-02T00:50:54.227Z,90.41
2023-02-02T00:51:54.238Z,90.83
2023-02-02T00:52:54.203Z,91.35
2023-02-02T00:53:54.189Z,91.39
2023-02-02T00:54:54.174Z,92.01
2023-02-02T00:55:54.177Z,91.80
2023-02-02T00:56:54.149Z,92.28
2023-02-02T00:57:54.137Z,92.43
2023-02-02T00:58:54.129Z,92.94
2023-02-02T00:59:54.118Z,93.35
2023-02-02T01:00:54.137Z,93.35
2023-02-02T01:01:54.187Z,93.46
2023-02-02T01:02:54.077Z,93.35
2023-02-02T01:03:54.066Z,93.10
2023-02-02T01:04:54.055Z,94.08
2023-02-02T01:05:54.040Z,93.87
2023-02-02T01:06:54.024Z,94.60
2023-02-02T01:07:54.015Z,94.70
2023-02-02T01:08:54.003Z,94.29
2023-02-02T01:09:53.997Z,94.39
2023-02-02T01:10:53.980Z,94.49
2023-02-02T01:11:53.967Z,94.29
2023-02-02T01:12:53.950Z,94.60
2023-02-02T01:13:53.940Z,94.14
2023-02-02T01:14:53.924Z,94.60
2023-02-02T01:15:53.917Z,94.29
2023-02-02T01:16:53.923Z,94.60
2023-02-02T01:17:53.890Z,94.91
2023-02-02T01:18:53.881Z,94.91
2023-02-02T01:19:53.868Z,94.39
2023-02-02T01:20:53.864Z,94.39
2023-02-02T01:21:53.842Z,94.39
2023-02-02T01:22:53.842Z,94.81
2023-02-02T01:23:53.813Z,95.32
2023-02-02T01:24:53.805Z,94.29
2023-02-02T01:25:53.790Z,94.81
2023-02-02T01:26:53.863Z,95.18
2023-02-02T01:27:53.770Z,95.12
2023-02-02T01:28:53.752Z,95.07
2023-02-02T01:29:53.742Z,95.84
2023-02-02T01:30:53.804Z,95.95
2023-02-02T01:31:53.735Z,96.26
2023-02-02T01:32:53.709Z,96.05
2023-02-02T01:33:53.690Z,95.43
2023-02-02T01:34:53.678Z,95.74
2023-02-02T01:35:53.674Z,96.26
2023-02-02T01:36:53.655Z,96.36
2023-02-02T01:37:53.640Z,96.26
2023-02-02T01:38:53.635Z,96.15
2023-02-02T01:39:53.617Z,95.95
2023-02-02T01:40:53.608Z,94.81
2023-02-02T01:41:53.591Z,95.64
2023-02-02T01:42:53.579Z,95.22
2023-02-02T01:43:53.567Z,95.32
2023-02-02T01:44:53.556Z,95.32
2023-02-02T01:45:53.546Z,95.22
2023-02-02T01:46:53.537Z,95.43
2023-02-02T01:47:53.523Z,95.43
2023-02-02T01:48:53.503Z,95.64
2023-02-02T01:49:53.489Z,95.43
2023-02-02T01:50:53.481Z,95.84
2023-02-02T01:51:53.473Z,95.74
2023-02-02T01:52:53.709Z,95.43
2023-02-02T01:53:53.440Z,95.84
2023-02-02T01:54:53.426Z,95.80
2023-02-02T01:55:53.417Z,96.11
2023-02-02T01:56:53.411Z,96.26
2023-02-02T01:57:53.391Z,95.84
2023-02-02T01:58:53.376Z,95.84
2023-02-02T01:59:53.369Z,96.05
2023-02-02T02:00:53.398Z,96.15
2023-02-02T02:01:53.342Z,96.67
2023-02-02T02:02:53.332Z,96.15
2023-02-02T02:03:53.319Z,96.47
2023-02-02T02:04:53.306Z,96.26
2023-02-02T02:05:53.312Z,96.26
2023-02-02T02:06:53.284Z,95.84
2023-02-02T02:07:53.270Z,95.84
2023-02-02T02:08:53.254Z,96.15
2023-02-02T02:09:53.243Z,95.95
2023-02-02T02:10:53.230Z,95.90
2023-02-02T02:11:53.216Z,95.90
2023-02-02T02:12:53.219Z,95.70
2023-02-02T02:13:53.196Z,96.47
2023-02-02T02:14:53.182Z,95.64
2023-02-02T02:15:53.179Z,95.59
2023-02-02T02:16:53.197Z,95.28
2023-02-02T02:17:53.143Z,95.70
2023-02-02T02:18:53.138Z,95.80
2023-02-02T02:19:53.130Z,95.18
2023-02-02T02:20:53.111Z,95.39
2023-02-02T02:21:53.100Z,95.28
2023-02-02T02:22:53.080Z,94.87
2023-02-02T02:23:53.068Z,95.39
2023-02-02T02:24:53.053Z,94.35
2023-02-02T02:25:53.043Z,94.35
2023-02-02T02:26:53.067Z,94.45
2023-02-02T02:27:53.017Z,94.45
2023-02-02T02:28:53.006Z,94.04
2023-02-02T02:29:52.998Z,93.83
2023-02-02T02:30:53.044Z,94.24
2023-02-02T02:31:53.071Z,93.68
2023-02-02T02:32:52.957Z,93.68
2023-02-02T02:33:52.947Z,92.76
2023-02-02T02:34:52.932Z,93.37
2023-02-02T02:35:52.922Z,92.34
2023-02-02T02:36:52.905Z,92.24
2023-02-02T02:37:52.910Z,92.13
2023-02-02T02:38:52.888Z,92.34
2023-02-02T02:39:52.871Z,92.34
2023-02-02T02:40:52.867Z,92.24
2023-02-02T02:41:52.845Z,92.24
2023-02-02T02:42:52.844Z,92.03
2023-02-02T02:43:52.828Z,91.82
2023-02-02T02:44:52.806Z,91.67
2023-02-02T02:45:52.813Z,91.47
2023-02-02T02:46:52.787Z,91.47
2023-02-02T02:47:52.774Z,91.30
2023-02-02T02:48:52.763Z,90.78
2023-02-02T02:49:52.749Z,90.84
2023-02-02T02:50:52.735Z,90.74
2023-02-02T02:51:52.725Z,90.74
2023-02-02T02:52:52.710Z,90.64
2023-02-02T02:53:52.699Z,90.44
2023-02-02T02:54:52.707Z,90.74
2023-02-02T02:55:52.673Z,90.64
2023-02-02T02:56:52.659Z,91.05
2023-02-02T02:57:52.649Z,91.16
2023-02-02T02:58:52.639Z,91.36
2023-02-02T02:59:52.622Z,90.64
2023-02-02T03:00:52.613Z,90.53
2023-02-02T03:01:52.612Z,90.74
2023-02-02T03:02:52.614Z,90.74
2023-02-02T03:03:52.576Z,90.44
2023-02-02T03:04:52.565Z,90.64
2023-02-02T03:05:52.552Z,90.64
2023-02-02T03:06:52.543Z,90.53
2023-02-02T03:07:52.529Z,90.44
2023-02-02T03:08:52.520Z,90.33
2023-02-02T03:09:52.502Z,90.44
2023-02-02T03:10:52.488Z,90.33
2023-02-02T03:11:52.477Z,90.02
2023-02-02T03:12:52.467Z,90.23
2023-02-02T03:13:52.454Z,90.23
2023-02-02T03:14:52.443Z,90.02
2023-02-02T03:15:52.491Z,90.02
2023-02-02T03:16:52.418Z,89.71
2023-02-02T03:17:52.406Z,90.12
2023-02-02T03:18:52.390Z,90.23
2023-02-02T03:19:52.376Z,90.23
2023-02-02T03:20:52.696Z,90.12
2023-02-02T03:21:52.357Z,90.29
2023-02-02T03:22:52.344Z,89.87
2023-02-02T03:23:52.335Z,89.61
2023-02-02T03:24:52.320Z,90.19
2023-02-02T03:25:52.313Z,90.08
2023-02-02T03:26:52.332Z,90.19
2023-02-02T03:27:52.284Z,90.23
2023-02-02T03:28:52.267Z,90.08
2023-02-02T03:29:52.264Z,90.19
2023-02-02T03:30:52.349Z,90.64
2023-02-02T03:31:52.243Z,90.74
2023-02-02T03:32:52.220Z,90.64
2023-02-02T03:33:52.218Z,90.44
2023-02-02T03:34:52.198Z,90.53
2023-02-02T03:35:52.184Z,90.84
2023-02-02T03:36:52.176Z,91.26
2023-02-02T03:37:52.169Z,91.16
2023-02-02T03:38:52.147Z,90.95
2023-02-02T03:39:53.783Z,91.05
2023-02-02T03:40:52.122Z,90.74
2023-02-02T03:41:52.124Z,91.26
2023-02-02T03:42:52.104Z,91.47
2023-02-02T03:43:52.088Z,91.36
2023-02-02T03:44:52.082Z,91.57
2023-02-02T03:45:52.060Z,91.36
2023-02-02T03:46:52.052Z,91.57
2023-02-02T03:47:52.053Z,91.67
2023-02-02T03:48:52.028Z,91.16
2023-02-02T03:49:52.014Z,91.47
2023-02-02T03:50:51.999Z,91.36
2023-02-02T03:51:51.992Z,91.26
2023-02-02T03:52:51.980Z,91.16
2023-02-02T03:53:51.968Z,91.47
2023-02-02T03:54:51.952Z,91.26
2023-02-02T03:55:51.940Z,91.47
2023-02-02T03:56:51.929Z,91.67
2023-02-02T03:57:51.918Z,91.36
2023-02-02T03:58:51.904Z,91.51
2023-02-02T03:59:51.902Z,91.20
2023-02-02T04:00:51.880Z,91.61
2023-02-02T04:01:51.883Z,91.26
2023-02-02T04:02:51.880Z,91.67
2023-02-02T04:03:51.846Z,91.26
2023-02-02T04:04:51.831Z,91.09
2023-02-02T04:05:51.819Z,91.36
2023-02-02T04:06:51.811Z,91.36
2023-02-02T04:07:51.803Z,91.16
2023-02-02T04:08:51.788Z,90.99
2023-02-02T04:09:51.778Z,91.05
2023-02-02T04:10:51.761Z,91.16
2023-02-02T04:11:51.750Z,90.84
2023-02-02T04:12:51.734Z,91.05
2023-02-02T04:13:51.723Z,90.99
2023-02-02T04:14:51.709Z,91.26
2023-02-02T04:15:51.738Z,90.95
2023-02-02T04:16:51.686Z,90.89
2023-02-02T04:17:51.685Z,90.44
2023-02-02T04:18:51.660Z,90.26
2023-02-02T04:19:51.653Z,90.84
2023-02-02T04:20:51.640Z,90.78
2023-02-02T04:21:51.621Z,90.26
2023-02-02T04:22:51.627Z,90.37
2023-02-02T04:23:51.600Z,90.06
2023-02-02T04:24:51.600Z,90.02
2023-02-02T04:25:51.580Z,90.02
2023-02-02T04:26:51.582Z,89.50
2023-02-02T04:27:51.553Z,89.92
2023-02-02T04:28:51.545Z,89.81
2023-02-02T04:29:51.532Z,89.61
2023-02-02T04:30:51.557Z,89.92
2023-02-02T04:31:51.571Z,89.92
2023-02-02T04:32:51.498Z,89.61
2023-02-02T04:33:51.478Z,89.09
2023-02-02T04:34:51.497Z,89.61
2023-02-02T04:35:51.453Z,89.50
2023-02-02T04:36:51.442Z,88.88
2023-02-02T04:37:51.430Z,89.09
2023-02-02T04:38:51.418Z,88.78
2023-02-02T04:39:51.452Z,89.40
2023-02-02T04:40:51.402Z,88.78
2023-02-02T04:41:51.388Z,88.98
2023-02-02T04:42:51.367Z,89.09
2023-02-02T04:43:51.356Z,88.88
2023-02-02T04:44:51.347Z,88.78
2023-02-02T04:45:51.359Z,88.16
2023-02-02T04:46:51.321Z,88.32
2023-02-02T04:47:51.310Z,88.36
2023-02-02T04:48:51.299Z,88.22
2023-02-02T04:49:51.283Z,87.43
2023-02-02T04:50:51.278Z,87.54
2023-02-02T04:51:51.276Z,87.70
2023-02-02T04:52:51.249Z,87.39
2023-02-02T04:53:51.243Z,87.85
2023-02-02T04:54:51.223Z,86.91
2023-02-02T04:55:51.238Z,86.77
2023-02-02T04:56:51.203Z,86.88
2023-02-02T04:57:51.189Z,87.49
2023-02-02T04:58:51.173Z,87.60
2023-02-02T04:59:51.166Z,87.64
2023-02-02T05:00:51.241Z,87.29
2023-02-02T05:01:51.149Z,88.01
2023-02-02T05:02:51.129Z,87.64
2023-02-02T05:03:51.126Z,86.77
2023-02-02T05:04:51.143Z,87.12
2023-02-02T05:05:51.094Z,87.81
2023-02-02T05:06:51.088Z,87.85
2023-02-02T05:07:51.073Z,87.49
2023-02-02T05:08:51.070Z,87.64
2023-02-02T05:09:51.048Z,87.60
2023-02-02T05:10:51.031Z,87.60
2023-02-02T05:11:51.020Z,88.06
2023-02-02T05:12:51.005Z,87.43
2023-02-02T05:13:51.001Z,87.91
2023-02-02T05:14:50.991Z,87.64
2023-02-02T05:15:50.968Z,88.01
2023-02-02T05:16:51.072Z,87.64
2023-02-02T05:17:50.947Z,87.18
2023-02-02T05:18:50.952Z,86.88
2023-02-02T05:19:50.925Z,87.43
2023-02-02T05:20:50.910Z,86.29
2023-02-02T05:21:51.502Z,86.67
2023-02-02T05:22:50.886Z,85.68
2023-02-02T05:23:50.875Z,85.94
2023-02-02T05:24:50.866Z,85.94
2023-02-02T05:25:50.861Z,85.63
2023-02-02T05:26:50.846Z,85.05
2023-02-02T05:27:50.823Z,84.08
2023-02-02T05:28:50.817Z,84.60
2023-02-02T05:29:50.802Z,84.60
2023-02-02T05:30:50.811Z,83.15
2023-02-02T05:31:50.792Z,83.56
2023-02-02T05:32:50.777Z,82.22
2023-02-02T05:33:50.761Z,82.74
2023-02-02T05:34:50.750Z,82.32
2023-02-02T05:35:50.727Z,82.43
2023-02-02T05:36:50.732Z,82.74
2023-02-02T05:37:50.712Z,83.36
2023-02-02T05:38:50.691Z,82.95
2023-02-02T05:39:50.679Z,83.05
2023-02-02T05:40:50.668Z,84.08
2023-02-02T05:41:50.652Z,83.36
2023-02-02T05:42:50.649Z,83.56
2023-02-02T05:43:50.629Z,83.25
2023-02-02T05:44:50.625Z,83.15
2023-02-02T05:45:50.620Z,83.46
2023-02-02T05:46:50.601Z,83.36
2023-02-02T05:47:50.580Z,82.57
2023-02-02T05:48:50.571Z,83.15
2023-02-02T05:49:50.570Z,82.74
2023-02-02T05:50:50.550Z,83.67
2023-02-02T05:51:50.532Z,83.25
2023-02-02T05:52:50.525Z,83.46
2023-02-02T05:53:50.509Z,83.46
2023-02-02T05:54:50.513Z,83.67
2023-02-02T05:55:50.488Z,82.88
2023-02-02T05:56:50.469Z,83.29
2023-02-02T05:57:50.473Z,83.36
2023-02-02T05:58:50.450Z,83.91
2023-02-02T05:59:50.442Z,84.70
2023-02-02T06:00:50.424Z,84.70
2023-02-02T06:01:50.427Z,84.70
2023-02-02T06:02:50.406Z,85.05
2023-02-02T06:03:50.469Z,85.05
2023-02-02T06:04:50.379Z,84.12
2023-02-02T06:05:50.366Z,83.40
2023-02-02T06:06:50.357Z,83.46
2023-02-02T06:07:50.340Z,83.46
2023-02-02T06:08:50.327Z,83.77
2023-02-02T06:09:50.316Z,83.40
2023-02-02T06:10:50.309Z,83.91
2023-02-02T06:11:50.293Z,84.29
2023-02-02T06:12:50.290Z,84.01
2023-02-02T06:13:50.269Z,84.33
2023-02-02T06:14:50.256Z,84.53
2023-02-02T06:15:50.315Z,84.01
2023-02-02T06:16:50.231Z,84.53
2023-02-02T06:17:50.218Z,84.53
2023-02-02T06:18:50.209Z,84.74
2023-02-02T06:19:50.193Z,84.95
2023-02-02T06:20:50.184Z,84.74
2023-02-02T06:21:50.175Z,85.05
2023-02-02T06:22:50.168Z,84.74
2023-02-02T06:23:50.149Z,84.64
2023-02-02T06:24:50.133Z,84.64
2023-02-02T06:25:50.126Z,84.53
2023-02-02T06:26:50.126Z,84.64
2023-02-02T06:27:50.099Z,84.43
2023-02-02T06:28:50.089Z,84.64
2023-02-02T06:29:50.078Z,85.05
2023-02-02T06:30:50.499Z,85.05
2023-02-02T06:31:50.264Z,84.78
2023-02-02T06:32:50.034Z,84.68
2023-02-02T06:33:50.026Z,83.71
2023-02-02T06:34:50.015Z,84.01
2023-02-02T06:35:50.002Z,84.12
2023-02-02T06:36:49.986Z,84.58
2023-02-02T06:37:49.977Z,84.06
2023-02-02T06:38:49.972Z,83.40
2023-02-02T06:39:49.990Z,83.40
2023-02-02T06:40:49.946Z,83.09
2023-02-02T06:41:49.930Z,83.19
2023-02-02T06:42:49.920Z,83.75
2023-02-02T06:43:49.982Z,83.40
2023-02-02T06:44:52.166Z,83.44
2023-02-02T06:45:49.938Z,83.29
2023-02-02T06:46:49.879Z,82.78
2023-02-02T06:47:49.864Z,82.98
2023-02-02T06:48:49.960Z,83.29
2023-02-02T06:49:49.833Z,82.98
2023-02-02T06:50:49.825Z,82.88
2023-02-02T06:51:49.810Z,82.71
2023-02-02T06:52:49.795Z,83.54
2023-02-02T06:53:49.790Z,83.29
2023-02-02T06:54:49.789Z,83.09
2023-02-02T06:55:49.758Z,82.36
2023-02-02T06:56:49.746Z,82.92
2023-02-02T06:57:49.736Z,82.81
2023-02-02T06:58:49.723Z,82.88
2023-02-02T06:59:49.712Z,81.74
2023-02-02T07:00:49.698Z,82.26
2023-02-02T07:01:49.732Z,82.36
2023-02-02T07:02:49.705Z,82.60
2023-02-02T07:03:49.676Z,81.68
2023-02-02T07:04:49.663Z,81.88
2023-02-02T07:05:49.642Z,81.26
2023-02-02T07:06:49.626Z,81.68
2023-02-02T07:07:49.612Z,81.57
2023-02-02T07:08:59.338Z,81.47
2023-02-02T07:09:57.777Z,81.57
2023-02-02T07:11:14.673Z,81.43
2023-02-02T07:11:49.578Z,81.37
2023-02-02T07:12:49.553Z,80.91
2023-02-02T07:13:49.552Z,79.09
2023-02-02T07:14:49.528Z,79.91
2023-02-02T07:15:49.531Z,79.67
2023-02-02T07:16:49.504Z,79.88
2023-02-02T07:17:49.497Z,80.22
2023-02-02T07:18:49.491Z,79.36
2023-02-02T07:19:49.466Z,79.57
2023-02-02T07:20:49.455Z,78.95
2023-02-02T07:21:49.453Z,78.95
2023-02-02T07:22:49.432Z,79.16
2023-02-02T07:23:49.423Z,78.74
2023-02-02T07:24:49.426Z,78.22
2023-02-02T07:25:49.408Z,77.29
2023-02-02T07:26:49.388Z,78.02
2023-02-02T07:27:49.372Z,78.22
2023-02-02T07:28:49.400Z,77.50
2023-02-02T07:29:49.349Z,78.22
2023-02-02T07:30:49.471Z,78.33
2023-02-02T07:31:49.345Z,78.05
2023-02-02T07:32:49.318Z,78.05
2023-02-02T07:33:49.307Z,78.05
2023-02-02T07:34:49.282Z,78.57
2023-02-02T07:35:49.286Z,78.05
2023-02-02T07:36:49.273Z,77.81
2023-02-02T07:37:49.248Z,79.09
2023-02-02T07:38:49.233Z,78.22
2023-02-02T07:39:49.224Z,78.16
2023-02-02T07:40:49.212Z,77.74
2023-02-02T07:41:49.200Z,78.99
2023-02-02T07:42:49.182Z,79.30
2023-02-02T07:43:49.179Z,79.09
2023-02-02T07:44:49.160Z,78.99
2023-02-02T07:45:49.155Z,79.50
2023-02-02T07:46:49.362Z,79.60
2023-02-02T07:47:49.130Z,79.71
2023-02-02T07:48:49.116Z,79.71
2023-02-02T07:49:49.105Z,79.71
2023-02-02T07:50:49.096Z,79.91
2023-02-02T07:51:49.086Z,80.02
2023-02-02T07:52:49.070Z,79.81
2023-02-02T07:53:49.063Z,80.74
2023-02-02T07:54:49.040Z,80.85
2023-02-02T07:55:49.040Z,81.16
2023-02-02T07:56:49.014Z,81.57
2023-02-02T07:57:49.014Z,81.40
2023-02-02T07:58:49.011Z,82.09
2023-02-02T07:59:48.987Z,82.40
2023-02-02T08:00:49.005Z,82.40
2023-02-02T08:01:48.983Z,82.81
2023-02-02T08:02:49.033Z,83.75
2023-02-02T08:03:48.935Z,84.16
2023-02-02T08:04:48.922Z,84.16
2023-02-02T08:05:48.916Z,84.78
2023-02-02T08:06:48.898Z,85.09
2023-02-02T08:07:48.885Z,85.40
2023-02-02T08:08:48.872Z,85.82
2023-02-02T08:09:48.868Z,85.71
2023-02-02T08:10:48.845Z,85.88
2023-02-02T08:11:48.840Z,86.09
2023-02-02T08:12:48.847Z,86.23
2023-02-02T08:13:48.843Z,86.29
2023-02-02T08:14:48.796Z,86.50
2023-02-02T08:15:48.861Z,86.91
2023-02-02T08:16:48.781Z,86.91
2023-02-02T08:17:48.769Z,87.12
2023-02-02T08:18:48.748Z,87.64
2023-02-02T08:19:48.752Z,87.74
2023-02-02T08:20:48.738Z,87.85
2023-02-02T08:21:48.715Z,87.60
2023-02-02T08:22:48.709Z,88.22
2023-02-02T08:23:48.701Z,87.91
2023-02-02T08:24:48.681Z,87.85
2023-02-02T08:25:48.667Z,87.60
2023-02-02T08:26:48.684Z,87.23
2023-02-02T08:27:48.644Z,87.39
2023-02-02T08:28:48.638Z,87.39
2023-02-02T08:29:48.632Z,87.39
2023-02-02T08:30:48.647Z,87.91
2023-02-02T08:31:48.705Z,87.49
2023-02-02T08:32:48.585Z,87.29
2023-02-02T08:33:48.576Z,87.49
2023-02-02T08:34:48.560Z,88.43
2023-02-02T08:35:48.555Z,87.39
2023-02-02T08:36:48.536Z,87.29
2023-02-02T08:37:48.524Z,88.12
2023-02-02T08:38:48.511Z,87.91
2023-02-02T08:39:48.500Z,88.46
2023-02-02T08:40:48.489Z,88.57
2023-02-02T08:41:48.476Z,87.49
2023-02-02T08:42:48.468Z,87.49
2023-02-02T08:43:48.460Z,87.29
2023-02-02T08:46:01.093Z,88.53
2023-02-02T08:46:01.996Z,88.59
2023-02-02T08:46:48.448Z,87.66
2023-02-02T08:47:51.972Z,87.49
2023-02-02T08:48:48.408Z,87.97
2023-02-02T08:49:48.387Z,87.35
2023-02-02T08:50:48.371Z,87.25
2023-02-02T08:51:48.364Z,86.63
2023-02-02T08:52:48.363Z,86.32
2023-02-02T08:53:48.335Z,86.73
2023-02-02T08:54:48.321Z,86.59
2023-02-02T08:55:48.311Z,85.86
2023-02-02T08:56:48.404Z,85.35
2023-02-02T08:57:48.292Z,85.45
2023-02-02T08:58:48.275Z,85.00
2023-02-02T08:59:48.264Z,84.21
2023-02-02T09:00:48.278Z,84.17
2023-02-02T09:01:48.337Z,85.00
2023-02-02T09:02:48.228Z,84.83
2023-02-02T09:03:48.222Z,84.69
2023-02-02T09:04:48.208Z,84.38
2023-02-02T09:05:48.215Z,83.65
2023-02-02T09:06:48.179Z,84.38
2023-02-02T09:07:48.176Z,84.17
2023-02-02T09:08:48.218Z,84.17
2023-02-02T09:09:48.148Z,84.28
2023-02-02T09:10:48.137Z,84.59
2023-02-02T09:11:48.136Z,83.86
2023-02-02T09:12:48.116Z,83.34
2023-02-02T09:13:48.103Z,83.25
2023-02-02T09:14:48.091Z,83.25
2023-02-02T09:15:48.083Z,84.07
2023-02-02T09:16:48.105Z,84.07
2023-02-02T09:17:55.212Z,83.25
2023-02-02T09:19:52.531Z,82.15
2023-02-02T09:20:52.506Z,82.15
2023-02-02T09:21:52.493Z,83.45
2023-02-02T09:22:52.488Z,83.90
2023-02-02T09:23:52.471Z,83.86
2023-02-02T09:24:52.457Z,83.25
2023-02-02T09:25:52.451Z,83.45
2023-02-02T09:26:52.502Z,82.62
2023-02-02T09:27:52.424Z,82.62
2023-02-02T09:28:52.421Z,82.10
2023-02-02T09:29:52.400Z,82.93
2023-02-02T09:30:52.395Z,83.14
2023-02-02T09:31:52.399Z,82.07
2023-02-02T09:32:52.375Z,82.48
2023-02-02T09:33:52.357Z,82.31
2023-02-02T09:34:52.347Z,82.38
2023-02-02T09:35:52.341Z,82.17
2023-02-02T09:36:52.322Z,81.76
2023-02-02T09:37:52.314Z,81.66
2023-02-02T09:38:52.310Z,81.86
2023-02-02T09:39:52.285Z,82.48
2023-02-02T09:40:52.280Z,81.70
2023-02-02T09:41:52.272Z,80.93
2023-02-02T09:42:52.261Z,81.35
2023-02-02T09:43:52.366Z,81.35
2023-02-02T09:44:52.233Z,80.62
2023-02-02T09:45:52.271Z,81.14
2023-02-02T09:46:52.220Z,80.73
2023-02-02T09:47:52.201Z,81.04
2023-02-02T09:48:52.194Z,80.79
2023-02-02T09:49:52.173Z,79.97
2023-02-02T09:50:52.157Z,80.28
2023-02-02T09:51:52.153Z,79.76
2023-02-02T09:52:52.153Z,79.55
2023-02-02T09:53:55.550Z,79.45
2023-02-02T09:54:52.127Z,79.66
2023-02-02T09:55:52.102Z,79.97
2023-02-02T09:56:52.090Z,79.25
2023-02-02T09:57:52.083Z,78.94
2023-02-02T09:58:52.067Z,79.66
2023-02-02T09:59:52.065Z,79.97
2023-02-02T10:00:52.047Z,79.35
2023-02-02T10:01:52.051Z,78.66
2023-02-02T10:02:52.027Z,78.56
2023-02-02T10:03:52.057Z,77.84
2023-02-02T10:04:52.004Z,77.53
2023-02-02T10:05:52.060Z,78.56
2023-02-02T10:06:51.982Z,78.66
2023-02-02T10:07:51.979Z,78.97
2023-02-02T10:08:51.956Z,77.73
2023-02-02T10:09:51.956Z,77.84
2023-02-02T10:10:51.946Z,78.77
2023-02-02T10:11:51.935Z,78.14
2023-02-02T10:12:52.013Z,78.35
2023-02-02T10:13:51.903Z,77.94
2023-02-02T10:14:51.980Z,77.84
2023-02-02T10:15:51.928Z,77.11
2023-02-02T10:16:51.873Z,77.53
2023-02-02T10:17:51.863Z,76.50
2023-02-02T10:18:51.847Z,75.43
2023-02-02T10:19:51.836Z,75.57
2023-02-02T10:20:51.830Z,76.04
2023-02-02T10:21:51.836Z,75.67
2023-02-02T10:22:51.803Z,76.29
2023-02-02T10:23:51.789Z,75.57
2023-02-02T10:24:51.805Z,75.46
2023-02-02T10:25:51.772Z,74.33
2023-02-02T10:26:51.813Z,74.71
2023-02-02T10:27:51.744Z,74.84
2023-02-02T10:28:51.737Z,74.40
2023-02-02T10:29:51.724Z,74.29
2023-02-02T10:30:51.824Z,74.50
2023-02-02T10:31:51.894Z,74.19
2023-02-02T10:32:51.689Z,73.36
2023-02-02T10:33:51.677Z,73.02
2023-02-02T10:35:03.293Z,72.61
2023-02-02T10:35:51.663Z,72.61
2023-02-02T10:36:51.646Z,72.47
2023-02-02T10:37:51.635Z,71.64
2023-02-02T10:38:51.629Z,71.64
2023-02-02T10:39:51.624Z,71.89
2023-02-02T10:40:51.599Z,71.23
2023-02-02T10:41:51.589Z,71.26
2023-02-02T10:42:51.573Z,71.64
2023-02-02T10:43:51.569Z,71.85
2023-02-02T10:44:51.559Z,71.03
2023-02-02T10:45:51.610Z,71.78
2023-02-02T10:46:51.532Z,71.03
2023-02-02T10:47:51.536Z,71.64
2023-02-02T10:48:51.512Z,72.06
2023-02-02T10:49:56.060Z,70.72
2023-02-02T10:50:51.484Z,71.03
2023-02-02T10:51:51.500Z,70.23
2023-02-02T10:52:51.467Z,70.96
2023-02-02T10:53:51.453Z,71.13
2023-02-02T10:54:57.367Z,71.47
2023-02-02T10:55:51.431Z,71.44
2023-02-02T10:56:51.418Z,71.16
2023-02-02T10:57:51.415Z,71.68
2023-02-02T10:58:51.403Z,71.55
2023-02-02T10:59:51.386Z,71.44
2023-02-02T11:00:51.398Z,71.44
2023-02-02T11:01:51.469Z,70.82
2023-02-02T11:02:51.412Z,70.03
2023-02-02T11:03:51.352Z,69.79
2023-02-02T11:04:51.337Z,70.54
2023-02-02T11:05:51.323Z,71.06
2023-02-02T11:06:51.320Z,71.13
2023-02-02T11:07:51.302Z,71.03
2023-02-02T11:08:51.288Z,71.03
2023-02-02T11:09:51.287Z,70.82
2023-02-02T11:10:51.269Z,70.31
2023-02-02T11:11:51.261Z,71.03
2023-02-02T11:12:51.247Z,71.64
2023-02-02T11:13:51.240Z,71.68
2023-02-02T11:14:51.230Z,71.26
2023-02-02T11:15:51.239Z,71.68
2023-02-02T11:16:51.217Z,71.78
2023-02-02T11:17:51.191Z,71.26
2023-02-02T11:18:51.205Z,71.44
2023-02-02T11:19:51.170Z,70.92
2023-02-02T11:20:51.159Z,70.92
2023-02-02T11:21:51.150Z,70.72
2023-02-02T11:22:51.136Z,71.03
2023-02-02T11:23:51.122Z,71.03
2023-02-02T11:24:51.168Z,71.03
2023-02-02T11:25:51.103Z,71.00
2023-02-02T11:26:51.140Z,69.76
2023-02-02T11:27:51.082Z,70.28
2023-02-02T11:28:51.073Z,70.58
2023-02-02T11:29:51.056Z,71.10
2023-02-02T11:30:51.139Z,70.28
2023-02-02T11:31:51.103Z,69.76
2023-02-02T11:32:51.024Z,70.48
2023-02-02T11:33:51.015Z,70.96
2023-02-02T11:34:51.008Z,70.86
2023-02-02T11:35:50.996Z,70.14
2023-02-02T11:36:50.980Z,70.55
2023-02-02T11:37:50.971Z,70.65
2023-02-02T11:38:50.962Z,70.65
2023-02-02T11:39:53.078Z,70.14
2023-02-02T11:40:50.971Z,70.55
2023-02-02T11:41:50.937Z,69.55
2023-02-02T11:42:50.915Z,69.55
2023-02-02T11:43:50.907Z,70.86
2023-02-02T11:44:50.908Z,70.37
2023-02-02T11:45:50.881Z,69.55
2023-02-02T11:46:50.920Z,71.10
2023-02-02T11:47:50.867Z,71.20
2023-02-02T11:48:50.881Z,71.00
2023-02-02T11:49:50.849Z,70.96
2023-02-02T11:50:50.883Z,71.06
2023-02-02T11:51:50.820Z,71.51
2023-02-02T11:52:50.843Z,71.30
2023-02-02T11:53:50.816Z,71.61
2023-02-02T11:54:50.814Z,72.47
2023-02-02T11:55:50.803Z,72.58
2023-02-02T11:56:50.828Z,74.12
2023-02-02T11:57:50.779Z,74.67
2023-02-02T11:58:50.742Z,75.09
2023-02-02T11:59:50.733Z,75.81
2023-02-02T12:00:50.721Z,76.25
2023-02-02T12:01:50.726Z,77.39
2023-02-02T12:02:50.702Z,78.52
2023-02-02T12:03:50.709Z,79.04
2023-02-02T12:04:50.688Z,79.55
2023-02-02T12:05:50.682Z,80.83
2023-02-02T12:06:50.674Z,81.31
2023-02-02T12:07:50.647Z,81.35
2023-02-02T12:08:50.636Z,82.69
2023-02-02T12:09:50.631Z,83.14
2023-02-02T12:10:50.614Z,83.86
2023-02-02T12:11:50.607Z,84.21
2023-02-02T12:12:50.590Z,84.11
2023-02-02T12:13:50.583Z,84.42
2023-02-02T12:14:50.567Z,84.73
2023-02-02T12:15:50.582Z,84.97
2023-02-02T12:16:50.548Z,84.66
2023-02-02T12:17:50.537Z,84.05
2023-02-02T12:18:50.525Z,83.73
2023-02-02T12:19:50.513Z,83.67
2023-02-02T12:20:50.503Z,82.84
2023-02-02T12:21:50.489Z,82.70
2023-02-02T12:22:50.481Z,82.29
2023-02-02T12:23:50.471Z,81.91
2023-02-02T12:24:50.457Z,83.25
2023-02-02T12:25:50.457Z,82.22
2023-02-02T12:26:50.551Z,81.91
2023-02-02T12:27:50.424Z,81.35
2023-02-02T12:28:50.410Z,81.77
2023-02-02T12:29:50.400Z,81.46
2023-02-02T12:30:50.447Z,80.53
2023-02-02T12:31:50.393Z,80.70
2023-02-02T12:32:50.361Z,81.21
2023-02-02T12:33:50.355Z,80.90
2023-02-02T12:34:50.340Z,80.39
2023-02-02T12:35:50.326Z,78.94
2023-02-02T12:36:50.336Z,80.29
2023-02-02T12:37:50.306Z,80.15
2023-02-02T12:38:50.293Z,78.84
2023-02-02T12:39:50.284Z,78.28
2023-02-02T12:40:50.271Z,77.19
2023-02-02T12:41:50.261Z,77.91
2023-02-02T12:42:50.297Z,78.08
2023-02-02T12:43:50.236Z,76.98
2023-02-02T12:44:50.233Z,76.43
2023-02-02T12:45:50.266Z,75.81
2023-02-02T12:46:50.200Z,76.32
2023-02-02T12:47:50.188Z,76.22
2023-02-02T12:48:50.175Z,75.36
2023-02-02T12:49:50.168Z,75.05
2023-02-02T12:50:50.158Z,74.53
2023-02-02T12:51:50.141Z,74.43
2023-02-02T12:52:50.130Z,74.74
2023-02-02T12:54:32.248Z,74.33